Time,TemperatureF,DewpointF,PressureIn,WindDirection,WindDirectionDegrees,WindSpeedMPH,WindSpeedGustMPH,Humidity,HourlyPrecipIn,Conditions,Clouds,dailyrainin,SoftwareType,DateUTC
2013-02-05 00:00:00,31.3,27.6,29.94,NNW,348,3.0,11.0,86,0.00,,,0.01,Wunderground v.1.15,2013-02-05 05:00:00,
2013-02-05 00:03:00,31.2,27.5,29.94,NNW,348,2.0,2.0,86,0.00,,,0.01,Wunderground v.1.15,2013-02-05 05:03:00,
2013-02-05 00:04:00,31.2,27.5,29.94,NNW,345,2.0,11.0,86,0.00,,,0.01,Wunderground v.1.15,2013-02-05 05:04:00,
2013-02-05 00:05:00,31.2,27.5,29.94,NNW,345,2.0,11.0,86,0.00,,,0.00,Wunderground v.1.15,2013-02-05 05:05:00,
2013-02-05 00:11:00,31.2,27.2,29.94,NNE,15,2.0,11.0,85,0.00,,,0.00,Wunderground v.1.15,2013-02-05 05:11:00,
2013-02-05 00:17:00,31.2,27.5,29.94,NNE,15,1.0,11.0,86,0.00,,,0.00,Wunderground v.1.15,2013-02-05 05:17:00,
2013-02-05 00:23:00,31.2,27.2,29.93,NNE,13,0.0,11.0,85,0.00,,,0.00,Wunderground v.1.15,2013-02-05 05:23:00,
2013-02-05 00:29:00,31.1,27.1,29.94,NNE,13,0.0,11.0,85,0.00,,,0.00,Wunderground v.1.15,2013-02-05 05:29:00,
2013-02-05 00:35:00,31.0,27.0,29.94,North,349,0.0,11.0,85,0.00,,,0.00,Wunderground v.1.15,2013-02-05 05:35:00,
2013-02-05 00:41:00,31.0,27.3,29.94,NNW,327,0.0,11.0,86,0.00,,,0.00,Wunderground v.1.15,2013-02-05 05:41:00,
2013-02-05 00:47:00,30.8,27.1,29.94,WNW,296,0.0,11.0,86,0.00,,,0.00,Wunderground v.1.15,2013-02-05 05:47:00,
2013-02-05 00:53:00,30.6,26.9,29.94,WNW,296,1.0,11.0,86,0.00,,,0.00,Wunderground v.1.15,2013-02-05 05:53:00,
2013-02-05 00:59:00,30.2,26.8,29.94,WNW,297,3.0,11.0,87,0.00,,,0.00,Wunderground v.1.15,2013-02-05 05:59:00,
2013-02-05 01:05:00,30.1,26.7,29.94,NW,310,3.0,11.0,87,0.00,,,0.00,Wunderground v.1.15,2013-02-05 06:05:00,
2013-02-05 01:11:00,30.1,26.7,29.94,NW,324,4.0,11.0,87,0.00,,,0.00,Wunderground v.1.15,2013-02-05 06:11:00,
2013-02-05 01:17:00,30.2,26.8,29.94,NNW,335,4.0,11.0,87,0.00,,,0.00,Wunderground v.1.15,2013-02-05 06:17:00,
2013-02-05 01:22:00,30.2,26.8,29.94,NW,321,4.0,11.0,87,0.00,,,0.00,Wunderground v.1.15,2013-02-05 06:22:00,
2013-02-05 01:28:00,30.1,26.7,29.94,NW,321,4.0,11.0,87,0.00,,,0.00,Wunderground v.1.15,2013-02-05 06:28:00,
2013-02-05 01:34:00,30.0,26.6,29.94,NW,322,4.0,11.0,87,0.00,,,0.00,Wunderground v.1.15,2013-02-05 06:34:00,
2013-02-05 01:40:00,30.0,26.9,29.94,NW,310,5.0,11.0,88,0.00,,,0.00,Wunderground v.1.15,2013-02-05 06:40:00,
2013-02-05 01:46:00,29.9,26.8,29.93,NW,320,4.0,11.0,88,0.00,,,0.00,Wunderground v.1.15,2013-02-05 06:46:00,
2013-02-05 01:52:00,29.9,26.8,29.93,NW,320,3.0,11.0,88,0.00,,,0.00,Wunderground v.1.15,2013-02-05 06:52:00,
2013-02-05 01:58:00,29.9,26.5,29.93,NW,322,3.0,11.0,87,0.00,,,0.00,Wunderground v.1.15,2013-02-05 06:58:00,
2013-02-05 02:04:00,29.9,26.5,29.93,NNW,329,2.0,11.0,87,0.00,,,0.00,Wunderground v.1.15,2013-02-05 07:04:00,
2013-02-05 02:10:00,29.9,26.5,29.93,NW,324,2.0,11.0,87,0.00,,,0.00,Wunderground v.1.15,2013-02-05 07:10:00,
2013-02-05 02:15:00,29.9,26.5,29.93,NW,310,2.0,11.0,87,0.00,,,0.00,Wunderground v.1.15,2013-02-05 07:15:00,
2013-02-05 02:21:00,29.8,26.4,29.94,NW,304,3.0,11.0,87,0.00,,,0.00,Wunderground v.1.15,2013-02-05 07:21:00,
2013-02-05 02:27:00,29.8,26.4,29.94,WNW,303,3.0,11.0,87,0.00,,,0.00,Wunderground v.1.15,2013-02-05 07:27:00,
2013-02-05 02:33:00,29.7,26.3,29.94,WNW,301,3.0,11.0,87,0.00,,,0.00,Wunderground v.1.15,2013-02-05 07:33:00,
2013-02-05 02:39:00,29.6,26.5,29.95,NW,304,3.0,11.0,88,0.00,,,0.00,Wunderground v.1.15,2013-02-05 07:39:00,
2013-02-05 02:44:00,29.4,26.3,29.95,WNW,301,4.0,11.0,88,0.00,,,0.00,Wunderground v.1.15,2013-02-05 07:44:00,
2013-02-05 02:50:00,29.5,26.4,29.95,NW,317,4.0,11.0,88,0.00,,,0.00,Wunderground v.1.15,2013-02-05 07:50:00,
2013-02-05 02:56:00,29.5,26.4,29.95,NW,311,4.0,11.0,88,0.00,,,0.00,Wunderground v.1.15,2013-02-05 07:56:00,
2013-02-05 03:02:00,29.4,26.3,29.95,NW,320,4.0,11.0,88,0.00,,,0.00,Wunderground v.1.15,2013-02-05 08:02:00,
2013-02-05 03:08:00,29.3,26.2,29.95,NW,312,5.0,11.0,88,0.00,,,0.00,Wunderground v.1.15,2013-02-05 08:08:00,
2013-02-05 03:14:00,29.2,26.1,29.94,NW,314,5.0,11.0,88,0.00,,,0.00,Wunderground v.1.15,2013-02-05 08:14:00,
2013-02-05 03:20:00,29.1,26.0,29.94,NW,324,4.0,11.0,88,0.00,,,0.00,Wunderground v.1.15,2013-02-05 08:20:00,
2013-02-05 03:26:00,29.2,26.1,29.95,NW,312,5.0,11.0,88,0.00,,,0.00,Wunderground v.1.15,2013-02-05 08:26:00,
2013-02-05 03:32:00,29.2,26.1,29.94,NW,314,5.0,11.0,88,0.00,,,0.00,Wunderground v.1.15,2013-02-05 08:32:00,
2013-02-05 03:38:00,29.1,26.0,29.95,NW,315,4.0,11.0,88,0.00,,,0.00,Wunderground v.1.15,2013-02-05 08:38:00,
2013-02-05 03:44:00,29.1,26.0,29.94,NW,304,3.0,11.0,88,0.00,,,0.00,Wunderground v.1.15,2013-02-05 08:44:00,
2013-02-05 03:50:00,29.1,26.0,29.93,NW,312,2.0,11.0,88,0.00,,,0.00,Wunderground v.1.15,2013-02-05 08:50:00,
2013-02-05 03:56:00,29.0,25.9,29.94,NW,310,2.0,11.0,88,0.00,,,0.00,Wunderground v.1.15,2013-02-05 08:56:00,
2013-02-05 04:02:00,28.9,25.8,29.94,NW,309,3.0,11.0,88,0.00,,,0.00,Wunderground v.1.15,2013-02-05 09:02:00,
2013-02-05 04:08:00,28.7,25.6,29.93,NW,309,2.0,11.0,88,0.00,,,0.00,Wunderground v.1.15,2013-02-05 09:08:00,
2013-02-05 04:14:00,28.7,25.9,29.94,NW,316,2.0,11.0,89,0.00,,,0.00,Wunderground v.1.15,2013-02-05 09:14:00,
2013-02-05 04:20:00,28.6,25.8,29.93,NW,310,3.0,11.0,89,0.00,,,0.00,Wunderground v.1.15,2013-02-05 09:20:00,
2013-02-05 04:25:00,28.4,25.6,29.93,NW,316,3.0,11.0,89,0.00,,,0.00,Wunderground v.1.15,2013-02-05 09:25:00,
2013-02-05 04:31:00,28.3,25.5,29.94,NW,316,2.0,11.0,89,0.00,,,0.00,Wunderground v.1.15,2013-02-05 09:31:00,
2013-02-05 04:37:00,28.0,25.4,29.94,NW,307,3.0,11.0,90,0.00,,,0.00,Wunderground v.1.15,2013-02-05 09:37:00,
2013-02-05 04:43:00,27.9,25.3,29.93,NW,317,3.0,11.0,90,0.00,,,0.00,Wunderground v.1.15,2013-02-05 09:43:00,
2013-02-05 04:48:00,27.8,25.0,29.93,NW,318,4.0,11.0,89,0.00,,,0.00,Wunderground v.1.15,2013-02-05 09:48:00,
2013-02-05 04:54:00,27.6,25.1,29.94,NW,314,4.0,11.0,90,0.00,,,0.00,Wunderground v.1.15,2013-02-05 09:54:00,
2013-02-05 05:00:00,27.7,25.2,29.94,NW,324,4.0,11.0,90,0.00,,,0.00,Wunderground v.1.15,2013-02-05 10:00:00,
2013-02-05 05:06:00,27.8,25.2,29.95,NW,305,5.0,11.0,90,0.00,,,0.00,Wunderground v.1.15,2013-02-05 10:06:00,
2013-02-05 05:12:00,27.9,25.3,29.94,WNW,301,4.0,11.0,90,0.00,,,0.00,Wunderground v.1.15,2013-02-05 10:12:00,
2013-02-05 05:18:00,27.8,25.2,29.94,NNW,328,3.0,11.0,90,0.00,,,0.00,Wunderground v.1.15,2013-02-05 10:18:00,
2013-02-05 05:24:00,27.8,25.2,29.94,NNW,330,1.0,11.0,90,0.00,,,0.00,Wunderground v.1.15,2013-02-05 10:24:00,
2013-02-05 05:30:00,27.7,25.2,29.94,NW,316,2.0,11.0,90,0.00,,,0.00,Wunderground v.1.15,2013-02-05 10:30:00,
2013-02-05 05:36:00,27.6,24.8,29.95,NW,325,4.0,11.0,89,0.00,,,0.00,Wunderground v.1.15,2013-02-05 10:36:00,
2013-02-05 05:42:00,27.6,25.1,29.95,NW,305,4.0,11.0,90,0.00,,,0.00,Wunderground v.1.15,2013-02-05 10:42:00,
2013-02-05 05:47:00,27.5,25.0,29.95,NW,311,4.0,11.0,90,0.00,,,0.00,Wunderground v.1.15,2013-02-05 10:47:00,
2013-02-05 05:53:00,27.4,24.9,29.95,NW,312,4.0,4.0,90,0.00,,,0.00,Wunderground v.1.15,2013-02-05 10:53:00,
2013-02-05 05:59:00,27.3,24.8,29.95,NW,324,3.0,11.0,90,0.00,,,0.00,Wunderground v.1.15,2013-02-05 10:59:00,
2013-02-05 06:05:00,27.2,24.7,29.95,NW,320,2.0,11.0,90,0.00,,,0.00,Wunderground v.1.15,2013-02-05 11:05:00,
2013-02-05 06:10:00,27.1,24.6,29.95,NW,314,2.0,11.0,90,0.00,,,0.00,Wunderground v.1.15,2013-02-05 11:10:00,
2013-02-05 06:16:00,26.8,24.3,29.94,NW,312,2.0,2.0,90,0.00,,,0.00,Wunderground v.1.15,2013-02-05 11:16:00,
2013-02-05 06:22:00,26.7,24.2,29.94,NW,312,1.0,2.0,90,0.00,,,0.00,Wunderground v.1.15,2013-02-05 11:22:00,
2013-02-05 06:28:00,26.6,24.1,29.94,NW,312,1.0,2.0,90,0.00,,,0.00,Wunderground v.1.15,2013-02-05 11:28:00,
2013-02-05 06:33:00,26.5,24.2,29.94,NW,304,1.0,1.0,91,0.00,,,0.00,Wunderground v.1.15,2013-02-05 11:33:00,
2013-02-05 06:39:00,26.5,24.2,29.94,NW,304,1.0,2.0,91,0.00,,,0.00,Wunderground v.1.15,2013-02-05 11:39:00,
2013-02-05 06:45:00,26.2,23.7,29.95,WNW,293,2.0,3.0,90,0.00,,,0.00,Wunderground v.1.15,2013-02-05 11:45:00,
2013-02-05 06:51:00,25.6,23.1,29.95,WNW,294,2.0,3.0,90,0.00,,,0.00,Wunderground v.1.15,2013-02-05 11:51:00,
2013-02-05 06:57:00,25.3,23.0,29.96,West,279,2.0,3.0,91,0.00,,,0.00,Wunderground v.1.15,2013-02-05 11:57:00,
2013-02-05 07:03:00,25.1,22.8,29.96,WSW,244,2.0,2.0,91,0.00,,,0.00,Wunderground v.1.15,2013-02-05 12:03:00,
2013-02-05 07:09:00,25.1,23.1,29.96,SW,227,1.0,6.0,92,0.00,,,0.00,Wunderground v.1.15,2013-02-05 12:09:00,
2013-02-05 07:15:00,25.1,23.1,29.97,SW,215,1.0,6.0,92,0.00,,,0.00,Wunderground v.1.15,2013-02-05 12:15:00,
2013-02-05 07:21:00,25.3,23.3,29.97,SW,228,2.0,6.0,92,0.00,,,0.00,Wunderground v.1.15,2013-02-05 12:21:00,
2013-02-05 07:27:00,25.4,23.4,29.96,SW,233,3.0,6.0,92,0.00,,,0.00,Wunderground v.1.15,2013-02-05 12:27:00,
2013-02-05 07:33:00,25.4,23.4,29.97,SW,232,1.0,1.0,92,0.00,,,0.00,Wunderground v.1.15,2013-02-05 12:33:00,
2013-02-05 07:39:00,25.3,23.3,29.97,SW,220,0.0,6.0,92,0.00,,,0.00,Wunderground v.1.15,2013-02-05 12:39:00,
2013-02-05 07:45:00,25.3,23.3,29.97,SSW,213,1.0,6.0,92,0.00,,,0.00,Wunderground v.1.15,2013-02-05 12:45:00,
2013-02-05 07:50:00,25.3,23.3,29.97,SSW,213,2.0,6.0,92,0.00,,,0.00,Wunderground v.1.15,2013-02-05 12:50:00,
2013-02-05 07:56:00,25.3,23.3,29.97,SW,214,1.0,6.0,92,0.00,,,0.00,Wunderground v.1.15,2013-02-05 12:56:00,
2013-02-05 08:02:00,25.3,23.3,29.97,SW,220,1.0,6.0,92,0.00,,,0.00,Wunderground v.1.15,2013-02-05 13:02:00,
2013-02-05 08:07:00,25.5,23.5,29.97,SW,220,2.0,6.0,92,0.00,,,0.00,Wunderground v.1.15,2013-02-05 13:07:00,
2013-02-05 08:13:00,25.5,23.5,29.97,SW,219,2.0,2.0,92,0.00,,,0.00,Wunderground v.1.15,2013-02-05 13:13:00,
2013-02-05 08:19:00,25.7,23.7,29.97,SW,219,1.0,6.0,92,0.00,,,0.00,Wunderground v.1.15,2013-02-05 13:19:00,
2013-02-05 08:25:00,25.8,23.5,29.97,SW,219,0.0,6.0,91,0.00,,,0.00,Wunderground v.1.15,2013-02-05 13:25:00,
2013-02-05 08:31:00,25.8,23.5,29.97,SW,219,0.0,6.0,91,0.00,,,0.00,Wunderground v.1.15,2013-02-05 13:31:00,
2013-02-05 08:37:00,25.5,23.2,29.97,South,183,0.0,6.0,91,0.00,,,0.00,Wunderground v.1.15,2013-02-05 13:37:00,
2013-02-05 08:43:00,25.5,23.5,29.97,SSE,167,1.0,6.0,92,0.00,,,0.00,Wunderground v.1.15,2013-02-05 13:43:00,
2013-02-05 08:49:00,25.6,23.6,29.97,SSE,167,1.0,6.0,92,0.00,,,0.00,Wunderground v.1.15,2013-02-05 13:49:00,
2013-02-05 08:55:00,25.8,23.8,29.97,SSE,167,0.0,6.0,92,0.00,,,0.00,Wunderground v.1.15,2013-02-05 13:55:00,
2013-02-05 09:01:00,26.0,24.3,29.97,SSE,167,0.0,6.0,93,0.00,,,0.00,Wunderground v.1.15,2013-02-05 14:01:00,
2013-02-05 09:07:00,26.1,24.1,29.98,SSE,168,0.0,6.0,92,0.00,,,0.00,Wunderground v.1.15,2013-02-05 14:07:00,
2013-02-05 09:13:00,26.4,24.4,29.97,South,183,1.0,6.0,92,0.00,,,0.00,Wunderground v.1.15,2013-02-05 14:13:00,
2013-02-05 09:18:00,26.7,24.7,29.97,South,170,2.0,6.0,92,0.00,,,0.00,Wunderground v.1.15,2013-02-05 14:18:00,
2013-02-05 09:24:00,26.9,24.6,29.98,SSW,207,2.0,6.0,91,0.00,,,0.00,Wunderground v.1.15,2013-02-05 14:24:00,
2013-02-05 09:30:00,27.1,24.8,29.98,West,268,2.0,6.0,91,0.00,,,0.00,Wunderground v.1.15,2013-02-05 14:30:00,
2013-02-05 09:36:00,27.2,24.9,29.98,West,271,2.0,6.0,91,0.00,,,0.00,Wunderground v.1.15,2013-02-05 14:36:00,
2013-02-05 09:42:00,27.4,25.1,29.99,West,272,2.0,6.0,91,0.00,,,0.00,Wunderground v.1.15,2013-02-05 14:42:00,
2013-02-05 09:48:00,27.6,25.3,29.99,SW,231,2.0,6.0,91,0.00,,,0.00,Wunderground v.1.15,2013-02-05 14:48:00,
2013-02-05 09:54:00,27.8,25.2,29.99,SSW,212,3.0,6.0,90,0.00,,,0.00,Wunderground v.1.15,2013-02-05 14:54:00,
2013-02-05 10:00:00,28.1,25.3,29.99,South,187,4.0,6.0,89,0.00,,,0.00,Wunderground v.1.15,2013-02-05 15:00:00,
2013-02-05 10:06:00,28.2,25.4,29.98,SSE,168,4.0,6.0,89,0.00,,,0.00,Wunderground v.1.15,2013-02-05 15:06:00,
2013-02-05 10:12:00,28.4,25.6,29.98,SSW,200,3.0,6.0,89,0.00,,,0.00,Wunderground v.1.15,2013-02-05 15:12:00,
2013-02-05 10:18:00,28.5,25.7,29.99,South,183,3.0,6.0,89,0.00,,,0.00,Wunderground v.1.15,2013-02-05 15:18:00,
2013-02-05 10:24:00,28.6,25.8,29.99,South,186,3.0,6.0,89,0.00,,,0.00,Wunderground v.1.15,2013-02-05 15:24:00,
2013-02-05 10:30:00,28.8,26.0,29.99,South,187,3.0,6.0,89,0.00,,,0.00,Wunderground v.1.15,2013-02-05 15:30:00,
2013-02-05 10:35:00,29.0,26.2,29.99,SSE,152,3.0,6.0,89,0.00,,,0.00,Wunderground v.1.15,2013-02-05 15:35:00,
2013-02-05 10:41:00,29.4,26.3,29.99,SE,144,2.0,6.0,88,0.00,,,0.00,Wunderground v.1.15,2013-02-05 15:41:00,
2013-02-05 10:47:00,29.7,26.3,29.99,South,189,2.0,6.0,87,0.00,,,0.00,Wunderground v.1.15,2013-02-05 15:47:00,
2013-02-05 10:53:00,29.9,26.5,29.99,SSE,166,2.0,3.0,87,0.00,,,0.00,Wunderground v.1.15,2013-02-05 15:53:00,
2013-02-05 10:59:00,30.1,26.4,29.99,SSE,158,3.0,6.0,86,0.00,,,0.00,Wunderground v.1.15,2013-02-05 15:59:00,
2013-02-05 11:04:00,30.4,26.7,29.98,SE,131,3.0,6.0,86,0.00,,,0.00,Wunderground v.1.15,2013-02-05 16:04:00,
2013-02-05 11:10:00,30.8,26.8,29.98,South,175,4.0,7.0,85,0.00,,,0.00,Wunderground v.1.15,2013-02-05 16:10:00,
2013-02-05 11:16:00,31.1,27.1,29.97,SSE,158,3.0,6.0,85,0.00,,,0.00,Wunderground v.1.15,2013-02-05 16:16:00,
2013-02-05 11:22:00,31.3,27.0,29.97,South,177,4.0,9.0,84,0.00,,,0.00,Wunderground v.1.15,2013-02-05 16:22:00,
2013-02-05 11:28:00,31.6,27.3,29.97,SSW,210,5.0,7.0,84,0.00,,,0.00,Wunderground v.1.15,2013-02-05 16:28:00,
2013-02-05 11:34:00,31.7,27.1,29.97,SSE,153,5.0,6.0,83,0.00,,,0.00,Wunderground v.1.15,2013-02-05 16:34:00,
2013-02-05 11:40:00,31.8,27.2,29.97,SSW,194,5.0,10.0,83,0.00,,,0.00,Wunderground v.1.15,2013-02-05 16:40:00,
2013-02-05 11:46:00,31.8,26.9,29.97,South,178,6.0,7.0,82,0.00,,,0.00,Wunderground v.1.15,2013-02-05 16:46:00,
2013-02-05 11:52:00,32.0,27.1,29.96,SSE,147,6.0,10.0,82,0.00,,,0.00,Wunderground v.1.15,2013-02-05 16:52:00,
2013-02-05 11:57:00,32.4,27.5,29.96,SE,141,4.0,8.0,82,0.00,,,0.00,Wunderground v.1.15,2013-02-05 16:57:00,
2013-02-05 12:03:00,32.5,27.6,29.95,SSW,192,5.0,5.0,82,0.00,,,0.00,Wunderground v.1.15,2013-02-05 17:03:00,
2013-02-05 12:09:00,32.8,27.6,29.95,South,183,5.0,7.0,81,0.00,,,0.00,Wunderground v.1.15,2013-02-05 17:09:00,
2013-02-05 12:15:00,33.0,27.8,29.94,SSE,152,5.0,7.0,81,0.00,,,0.00,Wunderground v.1.15,2013-02-05 17:15:00,
2013-02-05 12:21:00,33.3,27.8,29.94,South,176,6.0,10.0,80,0.00,,,0.00,Wunderground v.1.15,2013-02-05 17:21:00,
2013-02-05 12:27:00,33.4,27.9,29.94,South,184,5.0,8.0,80,0.00,,,0.00,Wunderground v.1.15,2013-02-05 17:27:00,
2013-02-05 12:33:00,33.5,28.0,29.94,SSE,156,6.0,6.0,80,0.00,,,0.00,Wunderground v.1.15,2013-02-05 17:33:00,
2013-02-05 12:38:00,33.6,28.1,29.93,SSE,164,5.0,6.0,80,0.00,,,0.00,Wunderground v.1.15,2013-02-05 17:38:00,
2013-02-05 12:44:00,33.9,28.4,29.94,South,181,4.0,7.0,80,0.00,,,0.00,Wunderground v.1.15,2013-02-05 17:44:00,
2013-02-05 12:49:00,33.8,28.0,29.93,South,173,5.0,11.0,79,0.00,,,0.00,Wunderground v.1.15,2013-02-05 17:49:00,
2013-02-05 12:54:00,33.9,28.1,29.93,SSE,165,6.0,6.0,79,0.00,,,0.00,Wunderground v.1.15,2013-02-05 17:54:00,
2013-02-05 13:00:00,34.0,28.5,29.93,South,189,5.0,6.0,80,0.00,,,0.00,Wunderground v.1.15,2013-02-05 18:00:00,
2013-02-05 13:06:00,34.3,28.8,29.93,South,184,4.0,6.0,80,0.00,,,0.00,Wunderground v.1.15,2013-02-05 18:06:00,
2013-02-05 13:12:00,34.6,28.8,29.93,South,191,2.0,6.0,79,0.00,,,0.00,Wunderground v.1.15,2013-02-05 18:12:00,
2013-02-05 13:18:00,34.8,29.0,29.92,South,170,3.0,6.0,79,0.00,,,0.00,Wunderground v.1.15,2013-02-05 18:18:00,
2013-02-05 13:24:00,35.0,28.8,29.92,SW,226,3.0,6.0,78,0.00,,,0.00,Wunderground v.1.15,2013-02-05 18:24:00,
2013-02-05 13:30:00,35.2,28.7,29.92,SSW,195,3.0,6.0,77,0.00,,,0.00,Wunderground v.1.15,2013-02-05 18:30:00,
2013-02-05 13:36:00,35.2,28.7,29.92,SW,228,4.0,6.0,77,0.00,,,0.00,Wunderground v.1.15,2013-02-05 18:36:00,
2013-02-05 13:42:00,35.3,28.8,29.92,WSW,237,5.0,6.0,77,0.00,,,0.00,Wunderground v.1.15,2013-02-05 18:42:00,
2013-02-05 13:48:00,35.5,28.7,29.92,SSW,210,4.0,8.0,76,0.00,,,0.00,Wunderground v.1.15,2013-02-05 18:48:00,
2013-02-05 13:54:00,35.5,28.7,29.92,SW,227,5.0,7.0,76,0.00,,,0.00,Wunderground v.1.15,2013-02-05 18:54:00,
2013-02-05 14:00:00,35.5,29.0,29.92,SW,220,5.0,7.0,77,0.00,,,0.00,Wunderground v.1.15,2013-02-05 19:00:00,
2013-02-05 14:06:00,35.5,28.4,29.92,SW,228,5.0,8.0,75,0.00,,,0.00,Wunderground v.1.15,2013-02-05 19:06:00,
2013-02-05 14:12:00,35.7,28.6,29.91,SSW,209,6.0,8.0,75,0.00,,,0.00,Wunderground v.1.15,2013-02-05 19:12:00,
2013-02-05 14:18:00,35.8,29.0,29.91,SSW,206,6.0,6.0,76,0.00,,,0.00,Wunderground v.1.15,2013-02-05 19:18:00,
2013-02-05 14:24:00,35.9,28.7,29.91,SW,226,6.0,9.0,75,0.00,,,0.00,Wunderground v.1.15,2013-02-05 19:24:00,
2013-02-05 14:30:00,36.1,28.9,29.91,SSW,197,6.0,9.0,75,0.00,,,0.00,Wunderground v.1.15,2013-02-05 19:30:00,
2013-02-05 14:35:00,36.1,28.9,29.91,SW,230,6.0,8.0,75,0.00,,,0.00,Wunderground v.1.15,2013-02-05 19:35:00,
2013-02-05 14:41:00,36.1,28.9,29.90,South,187,7.0,11.0,75,0.00,,,0.00,Wunderground v.1.15,2013-02-05 19:41:00,
2013-02-05 14:47:00,36.2,29.0,29.90,SW,233,9.0,10.0,75,0.00,,,0.00,Wunderground v.1.15,2013-02-05 19:47:00,
2013-02-05 14:53:00,36.3,29.1,29.90,SW,218,9.0,11.0,75,0.00,,,0.00,Wunderground v.1.15,2013-02-05 19:53:00,
2013-02-05 14:59:00,36.2,29.0,29.90,SW,218,9.0,12.0,75,0.00,,,0.00,Wunderground v.1.15,2013-02-05 19:59:00,
2013-02-05 15:04:00,36.3,29.1,29.90,WSW,249,9.0,10.0,75,0.00,,,0.00,Wunderground v.1.15,2013-02-05 20:04:00,
2013-02-05 15:10:00,36.9,30.0,29.90,SW,235,9.0,13.0,76,0.00,,,0.00,Wunderground v.1.15,2013-02-05 20:10:00,
2013-02-05 15:15:00,37.1,29.6,29.89,SW,218,8.0,12.0,74,0.00,,,0.00,Wunderground v.1.15,2013-02-05 20:15:00,
2013-02-05 15:21:00,37.1,29.9,29.89,SSW,200,8.0,12.0,75,0.00,,,0.00,Wunderground v.1.15,2013-02-05 20:21:00,
2013-02-05 15:27:00,37.2,30.0,29.89,SSW,203,9.0,11.0,75,0.00,,,0.00,Wunderground v.1.15,2013-02-05 20:27:00,
2013-02-05 15:32:00,37.4,30.2,29.89,SSW,203,9.0,10.0,75,0.00,,,0.00,Wunderground v.1.15,2013-02-05 20:32:00,
2013-02-05 15:38:00,37.9,30.4,29.88,SW,219,11.0,14.0,74,0.00,,,0.00,Wunderground v.1.15,2013-02-05 20:38:00,
2013-02-05 15:43:00,38.6,31.0,29.89,SW,216,10.0,10.0,74,0.00,,,0.00,Wunderground v.1.15,2013-02-05 20:43:00,
2013-02-05 15:49:00,38.6,31.0,29.88,SSW,200,9.0,12.0,74,0.00,,,0.00,Wunderground v.1.15,2013-02-05 20:49:00,
2013-02-05 15:55:00,38.8,30.9,29.88,SSW,210,11.0,12.0,73,0.00,,,0.00,Wunderground v.1.15,2013-02-05 20:55:00,
2013-02-05 16:01:00,39.1,31.5,29.89,SW,226,11.0,16.0,74,0.00,,,0.00,Wunderground v.1.15,2013-02-05 21:01:00,
2013-02-05 16:07:00,39.1,31.5,29.89,SW,231,12.0,17.0,74,0.00,,,0.00,Wunderground v.1.15,2013-02-05 21:07:00,
2013-02-05 16:13:00,39.2,31.6,29.89,SW,226,12.0,12.0,74,0.00,,,0.00,Wunderground v.1.15,2013-02-05 21:13:00,
2013-02-05 16:19:00,39.3,31.7,29.89,WSW,251,11.0,14.0,74,0.00,,,0.00,Wunderground v.1.15,2013-02-05 21:19:00,
2013-02-05 16:25:00,39.4,31.8,29.89,SSW,199,11.0,11.0,74,0.00,,,0.00,Wunderground v.1.15,2013-02-05 21:25:00,
2013-02-05 16:31:00,39.3,31.7,29.89,West,264,10.0,13.0,74,0.00,,,0.00,Wunderground v.1.15,2013-02-05 21:31:00,
2013-02-05 16:37:00,39.5,32.2,29.89,SW,220,9.0,13.0,75,0.00,,,0.00,Wunderground v.1.15,2013-02-05 21:37:00,
2013-02-05 16:42:00,39.8,32.5,29.89,WNW,290,8.0,8.0,75,0.00,,,0.00,Wunderground v.1.15,2013-02-05 21:42:00,
2013-02-05 16:48:00,39.8,32.5,29.89,SSW,205,10.0,16.0,75,0.00,,,0.00,Wunderground v.1.15,2013-02-05 21:48:00,
2013-02-05 16:54:00,39.9,32.6,29.90,SSW,199,9.0,9.0,75,0.00,,,0.00,Wunderground v.1.15,2013-02-05 21:54:00,
2013-02-05 17:00:00,39.8,32.5,29.90,SSW,206,10.0,15.0,75,0.00,,,0.00,Wunderground v.1.15,2013-02-05 22:00:00,
2013-02-05 17:06:00,39.8,32.8,29.90,WSW,240,9.0,10.0,76,0.00,,,0.00,Wunderground v.1.15,2013-02-05 22:06:00,
2013-02-05 17:12:00,39.7,32.8,29.90,SW,231,9.0,17.0,76,0.00,,,0.00,Wunderground v.1.15,2013-02-05 22:12:00,
2013-02-05 17:17:00,39.6,33.0,29.90,SW,215,10.0,15.0,77,0.00,,,0.00,Wunderground v.1.15,2013-02-05 22:17:00,
2013-02-05 17:23:00,39.6,33.0,29.91,SW,233,10.0,15.0,77,0.00,,,0.00,Wunderground v.1.15,2013-02-05 22:23:00,
2013-02-05 17:29:00,39.6,33.0,29.92,SE,139,10.0,15.0,77,0.00,,,0.00,Wunderground v.1.15,2013-02-05 22:29:00,
2013-02-05 17:35:00,39.6,33.3,29.92,WSW,247,7.0,12.0,78,0.00,,,0.00,Wunderground v.1.15,2013-02-05 22:35:00,
2013-02-05 17:41:00,39.5,33.2,29.92,SSW,197,6.0,12.0,78,0.00,,,0.00,Wunderground v.1.15,2013-02-05 22:41:00,
2013-02-05 17:46:00,39.3,33.0,29.92,SW,226,4.0,6.0,78,0.00,,,0.00,Wunderground v.1.15,2013-02-05 22:46:00,
2013-02-05 17:51:00,39.0,33.0,29.92,SW,220,3.0,6.0,79,0.00,,,0.00,Wunderground v.1.15,2013-02-05 22:51:00,
2013-02-05 17:57:00,38.9,32.9,29.92,SSW,193,3.0,6.0,79,0.00,,,0.00,Wunderground v.1.15,2013-02-05 22:57:00,
2013-02-05 18:03:00,38.7,33.1,29.93,West,278,4.0,6.0,80,0.00,,,0.00,Wunderground v.1.15,2013-02-05 23:03:00,
2013-02-05 18:09:00,38.6,33.0,29.93,WNW,293,4.0,6.0,80,0.00,,,0.00,Wunderground v.1.15,2013-02-05 23:09:00,
2013-02-05 18:15:00,38.4,33.1,29.93,WNW,293,4.0,6.0,81,0.00,,,0.00,Wunderground v.1.15,2013-02-05 23:15:00,
2013-02-05 18:21:00,38.0,32.7,29.94,WNW,288,4.0,6.0,81,0.00,,,0.00,Wunderground v.1.15,2013-02-05 23:21:00,
2013-02-05 18:27:00,37.9,32.9,29.94,WNW,290,4.0,6.0,82,0.00,,,0.00,Wunderground v.1.15,2013-02-05 23:27:00,
2013-02-05 18:32:00,37.5,32.5,29.94,WNW,300,4.0,6.0,82,0.00,,,0.00,Wunderground v.1.15,2013-02-05 23:32:00,
2013-02-05 18:38:00,37.3,32.6,29.94,WNW,295,4.0,6.0,83,0.00,,,0.00,Wunderground v.1.15,2013-02-05 23:38:00,
2013-02-05 18:43:00,37.1,32.7,29.95,NW,308,4.0,6.0,84,0.00,,,0.00,Wunderground v.1.15,2013-02-05 23:43:00,
2013-02-05 18:49:00,37.3,32.6,29.95,NW,316,4.0,6.0,83,0.00,,,0.00,Wunderground v.1.15,2013-02-05 23:49:00,
2013-02-05 18:55:00,37.5,32.8,29.96,NNW,331,4.0,6.0,83,0.00,,,0.00,Wunderground v.1.15,2013-02-05 23:55:00,
2013-02-05 19:01:00,37.5,33.1,29.96,NW,312,4.0,6.0,84,0.00,,,0.00,Wunderground v.1.15,2013-02-06 00:01:00,
2013-02-05 19:07:00,37.5,33.1,29.96,NW,309,3.0,6.0,84,0.00,,,0.00,Wunderground v.1.15,2013-02-06 00:07:00,
2013-02-05 19:13:00,37.5,33.1,29.97,NW,308,3.0,6.0,84,0.00,,,0.00,Wunderground v.1.15,2013-02-06 00:13:00,
2013-02-05 19:19:00,37.4,33.0,29.97,NW,310,3.0,6.0,84,0.00,,,0.00,Wunderground v.1.15,2013-02-06 00:19:00,
2013-02-05 19:25:00,37.2,32.8,29.97,SSW,204,2.0,6.0,84,0.00,,,0.00,Wunderground v.1.15,2013-02-06 00:25:00,
2013-02-05 19:31:00,37.1,33.0,29.97,SSW,201,3.0,6.0,85,0.00,,,0.00,Wunderground v.1.15,2013-02-06 00:31:00,
2013-02-05 19:37:00,37.0,32.9,29.97,SW,236,4.0,6.0,85,0.00,,,0.00,Wunderground v.1.15,2013-02-06 00:37:00,
2013-02-05 19:43:00,37.0,32.9,29.97,WSW,250,2.0,2.0,85,0.00,,,0.00,Wunderground v.1.15,2013-02-06 00:43:00,
2013-02-05 19:49:00,36.8,32.7,29.98,West,270,1.0,6.0,85,0.00,,,0.00,Wunderground v.1.15,2013-02-06 00:49:00,
2013-02-05 19:54:00,36.5,32.4,29.98,SW,232,1.0,6.0,85,0.00,,,0.00,Wunderground v.1.15,2013-02-06 00:54:00,
2013-02-05 20:00:00,36.4,32.6,29.98,WNW,285,1.0,6.0,86,0.00,,,0.00,Wunderground v.1.15,2013-02-06 01:00:00,
2013-02-05 20:06:00,36.6,32.8,29.98,WNW,283,2.0,6.0,86,0.00,,,0.00,Wunderground v.1.15,2013-02-06 01:06:00,
2013-02-05 20:12:00,36.7,32.9,29.99,West,279,3.0,3.0,86,0.00,,,0.00,Wunderground v.1.15,2013-02-06 01:12:00,
2013-02-05 20:18:00,36.8,32.7,29.99,WNW,288,3.0,6.0,85,0.00,,,0.00,Wunderground v.1.15,2013-02-06 01:18:00,
2013-02-05 20:24:00,36.9,33.1,29.99,WNW,285,3.0,6.0,86,0.00,,,0.00,Wunderground v.1.15,2013-02-06 01:24:00,
2013-02-05 20:30:00,37.1,33.0,30.00,NW,309,3.0,6.0,85,0.00,,,0.00,Wunderground v.1.15,2013-02-06 01:30:00,
2013-02-05 20:36:00,37.5,33.1,30.00,West,274,3.0,6.0,84,0.00,,,0.00,Wunderground v.1.15,2013-02-06 01:36:00,
2013-02-05 20:42:00,37.5,33.1,30.00,WNW,283,3.0,6.0,84,0.00,,,0.00,Wunderground v.1.15,2013-02-06 01:42:00,
2013-02-05 20:48:00,37.7,33.3,30.00,WNW,291,4.0,6.0,84,0.00,,,0.00,Wunderground v.1.15,2013-02-06 01:48:00,
2013-02-05 20:54:00,37.7,33.3,30.00,WNW,289,4.0,6.0,84,0.00,,,0.00,Wunderground v.1.15,2013-02-06 01:54:00,
2013-02-05 21:00:00,37.9,33.5,30.00,WNW,291,5.0,7.0,84,0.00,,,0.00,Wunderground v.1.15,2013-02-06 02:00:00,
2013-02-05 21:06:00,38.1,33.4,30.00,NW,307,5.0,6.0,83,0.00,,,0.00,Wunderground v.1.15,2013-02-06 02:06:00,
2013-02-05 21:12:00,38.3,33.6,30.01,West,280,5.0,6.0,83,0.00,,,0.00,Wunderground v.1.15,2013-02-06 02:12:00,
2013-02-05 21:17:00,38.3,33.6,30.01,WNW,296,5.0,6.0,83,0.00,,,0.00,Wunderground v.1.15,2013-02-06 02:17:00,
2013-02-05 21:23:00,38.6,33.9,30.01,WNW,289,5.0,8.0,83,0.00,,,0.00,Wunderground v.1.15,2013-02-06 02:23:00,
2013-02-05 21:29:00,38.6,33.6,30.01,West,278,6.0,8.0,82,0.00,,,0.00,Wunderground v.1.15,2013-02-06 02:29:00,
2013-02-05 21:35:00,38.6,33.6,30.02,WNW,292,7.0,7.0,82,0.00,,,0.00,Wunderground v.1.15,2013-02-06 02:35:00,
2013-02-05 21:41:00,38.7,33.7,30.02,WNW,287,7.0,9.0,82,0.00,,,0.00,Wunderground v.1.15,2013-02-06 02:41:00,
2013-02-05 21:47:00,38.7,33.7,30.03,WNW,292,7.0,7.0,82,0.00,,,0.00,Wunderground v.1.15,2013-02-06 02:47:00,
2013-02-05 21:53:00,38.6,33.6,30.03,WNW,303,6.0,7.0,82,0.00,,,0.00,Wunderground v.1.15,2013-02-06 02:53:00,
2013-02-05 21:59:00,38.5,33.5,30.03,NW,308,7.0,7.0,82,0.00,,,0.00,Wunderground v.1.15,2013-02-06 02:59:00,
2013-02-05 22:05:00,38.4,33.4,30.03,WNW,294,6.0,9.0,82,0.00,,,0.00,Wunderground v.1.15,2013-02-06 03:05:00,
2013-02-05 22:11:00,38.9,33.6,30.04,NW,304,8.0,13.0,81,0.00,,,0.00,Wunderground v.1.15,2013-02-06 03:11:00,
2013-02-05 22:17:00,38.8,33.5,30.04,WNW,297,8.0,10.0,81,0.00,,,0.00,Wunderground v.1.15,2013-02-06 03:17:00,
2013-02-05 22:22:00,38.9,33.3,30.04,WNW,299,7.0,10.0,80,0.00,,,0.00,Wunderground v.1.15,2013-02-06 03:22:00,
2013-02-05 22:28:00,38.8,33.2,30.04,WNW,294,7.0,9.0,80,0.00,,,0.00,Wunderground v.1.15,2013-02-06 03:28:00,
2013-02-05 22:34:00,38.9,32.9,30.05,WNW,303,8.0,15.0,79,0.00,,,0.00,Wunderground v.1.15,2013-02-06 03:34:00,
2013-02-05 22:40:00,39.0,32.7,30.05,NW,317,10.0,15.0,78,0.00,,,0.00,Wunderground v.1.15,2013-02-06 03:40:00,
2013-02-05 22:46:00,39.1,32.8,30.05,NW,308,11.0,16.0,78,0.00,,,0.00,Wunderground v.1.15,2013-02-06 03:46:00,
2013-02-05 22:52:00,38.8,32.8,30.05,NW,318,9.0,16.0,79,0.00,,,0.00,Wunderground v.1.15,2013-02-06 03:52:00,
2013-02-05 22:58:00,38.7,32.7,30.06,NW,318,8.0,11.0,79,0.00,,,0.00,Wunderground v.1.15,2013-02-06 03:58:00,
2013-02-05 23:04:00,38.6,32.3,30.06,NW,325,8.0,9.0,78,0.00,,,0.00,Wunderground v.1.15,2013-02-06 04:04:00,
2013-02-05 23:10:00,38.5,32.2,30.06,NNW,332,8.0,13.0,78,0.00,,,0.00,Wunderground v.1.15,2013-02-06 04:10:00,
2013-02-05 23:16:00,38.5,32.2,30.06,NW,307,9.0,9.0,78,0.00,,,0.00,Wunderground v.1.15,2013-02-06 04:16:00,
2013-02-05 23:22:00,38.3,32.4,30.06,WNW,293,8.0,9.0,79,0.00,,,0.00,Wunderground v.1.15,2013-02-06 04:22:00,
2013-02-05 23:28:00,38.0,32.1,30.06,NW,326,7.0,8.0,79,0.00,,,0.00,Wunderground v.1.15,2013-02-06 04:28:00,
2013-02-05 23:34:00,37.9,32.0,30.06,NW,307,7.0,8.0,79,0.00,,,0.00,Wunderground v.1.15,2013-02-06 04:34:00,
2013-02-05 23:39:00,37.8,31.9,30.06,NW,313,8.0,9.0,79,0.00,,,0.00,Wunderground v.1.15,2013-02-06 04:39:00,
2013-02-05 23:45:00,37.6,31.7,30.07,NW,305,7.0,8.0,79,0.00,,,0.00,Wunderground v.1.15,2013-02-06 04:45:00,
2013-02-05 23:51:00,37.6,31.7,30.07,NW,324,6.0,8.0,79,0.00,,,0.00,Wunderground v.1.15,2013-02-06 04:51:00,
2013-02-05 23:57:00,37.6,31.7,30.08,NNW,337,5.0,6.0,79,0.00,,,0.00,Wunderground v.1.15,2013-02-06 04:57:00,